createdAt,value
2023-12-26T00:00:29.959Z,5.00
2023-12-26T00:05:32.693Z,5.60
2023-12-26T00:10:35.683Z,4.60
2023-12-26T00:15:38.625Z,5.27
2023-12-26T00:20:44.999Z,4.87
2023-12-26T00:25:48.302Z,5.70
2023-12-26T00:30:53.851Z,5.17
2023-12-26T00:35:58.478Z,5.03
2023-12-26T00:41:01.138Z,5.07
2023-12-26T00:46:03.862Z,5.20
2023-12-26T00:51:07.395Z,4.83
2023-12-26T00:56:09.987Z,3.80
2023-12-26T01:01:12.672Z,4.83
2023-12-26T01:06:16.496Z,4.43
2023-12-26T01:11:19.263Z,5.37
2023-12-26T01:16:23.959Z,4.63
2023-12-26T01:21:26.718Z,4.90
2023-12-26T01:26:32.248Z,5.37
2023-12-26T01:31:38.450Z,5.23
2023-12-26T01:36:42.402Z,5.63
2023-12-26T01:41:45.123Z,4.77
2023-12-26T01:46:47.788Z,4.77
2023-12-26T01:51:53.251Z,5.73
2023-12-26T01:56:56.252Z,5.30
2023-12-26T02:01:59.864Z,4.63
2023-12-26T02:07:03.530Z,6.17
2023-12-26T02:12:07.503Z,5.07
2023-12-26T02:17:16.852Z,4.83
2023-12-26T02:22:19.875Z,5.18
2023-12-26T02:27:26.720Z,5.37
2023-12-26T02:32:29.931Z,4.40
2023-12-26T02:37:32.963Z,4.10
2023-12-26T02:42:35.589Z,5.00
2023-12-26T02:47:38.290Z,5.70
2023-12-26T02:52:43.204Z,6.23
2023-12-26T02:57:45.832Z,4.90
2023-12-26T03:02:48.525Z,5.33
2023-12-26T03:07:51.432Z,4.90
2023-12-26T03:12:55.345Z,4.50
2023-12-26T03:17:58.311Z,5.30
2023-12-26T03:23:01.195Z,4.67
2023-12-26T03:28:03.939Z,5.23
2023-12-26T03:33:07.989Z,5.40
2023-12-26T03:38:10.692Z,4.70
2023-12-26T03:43:14.632Z,4.80
2023-12-26T03:48:19.179Z,4.63
2023-12-26T03:53:22.894Z,5.77
2023-12-26T03:58:25.599Z,4.97
2023-12-26T04:03:28.449Z,4.80
2023-12-26T04:08:31.351Z,5.80
2023-12-26T04:13:34.058Z,4.93
2023-12-26T04:18:37.366Z,4.97
2023-12-26T04:23:40.255Z,4.20
2023-12-26T04:28:43.513Z,5.40
2023-12-26T04:33:46.926Z,4.27
2023-12-26T04:38:50.030Z,4.73
2023-12-26T04:43:52.745Z,5.13
2023-12-26T04:48:55.635Z,5.30
2023-12-26T04:53:58.840Z,4.53
2023-12-26T04:59:01.974Z,4.47
2023-12-26T05:04:05.444Z,5.07
2023-12-26T05:09:08.101Z,4.60
2023-12-26T05:14:10.800Z,4.67
2023-12-26T05:19:13.736Z,5.03
2023-12-26T05:24:16.902Z,4.43
2023-12-26T05:29:19.693Z,4.47
2023-12-26T05:34:22.550Z,4.87
2023-12-26T05:39:25.420Z,5.27
2023-12-26T05:44:28.245Z,3.93
2023-12-26T05:49:32.154Z,4.40
2023-12-26T05:54:34.953Z,5.13
2023-12-26T05:59:37.906Z,4.60
2023-12-26T06:04:41.210Z,4.87
2023-12-26T06:09:44.591Z,4.10
2023-12-26T06:14:47.574Z,5.43
2023-12-26T06:19:51.074Z,5.10
2023-12-26T06:24:53.824Z,4.40
2023-12-26T06:29:57.694Z,4.80
2023-12-26T06:35:01.982Z,5.23
2023-12-26T06:40:06.987Z,4.33
2023-12-26T06:45:09.969Z,3.57
2023-12-26T06:50:12.985Z,4.80
2023-12-26T06:55:28.158Z,4.43
2023-12-26T07:42:38.241Z,1.77
2023-12-26T08:00:37.994Z,1.93
2023-12-26T08:06:16.528Z,2.23
2023-12-26T08:53:08.095Z,0.80
2023-12-26T09:34:26.203Z,0.43
2023-12-26T09:39:29.311Z,0.50
2023-12-26T09:44:33.211Z,0.87
2023-12-26T09:49:38.459Z,0.90
2023-12-26T09:54:47.620Z,0.90
2023-12-26T09:59:52.884Z,0.50
2023-12-26T10:04:56.313Z,0.60
2023-12-26T10:09:59.527Z,0.47
2023-12-26T10:15:06.581Z,0.70
2023-12-26T10:20:09.946Z,0.27
2023-12-26T10:25:14.390Z,0.50
2023-12-26T10:30:19.402Z,0.30
2023-12-26T10:35:22.510Z,0.40
2023-12-26T10:40:25.114Z,0.40
2023-12-26T10:45:28.222Z,0.57
2023-12-26T10:50:36.344Z,0.43
2023-12-26T10:55:39.208Z,0.30
2023-12-26T11:00:54.755Z,0.40
2023-12-26T11:06:53.516Z,0.60
2023-12-26T11:13:11.172Z,0.60
2023-12-26T11:19:28.500Z,0.43
2023-12-26T11:25:47.119Z,0.53
2023-12-26T11:32:04.231Z,1.00
2023-12-26T11:38:21.669Z,0.80
2023-12-26T11:44:38.765Z,0.80
2023-12-26T11:50:56.271Z,0.80
2023-12-26T11:57:13.640Z,1.13
2023-12-26T12:03:30.822Z,1.00
2023-12-26T12:09:47.678Z,0.90
2023-12-26T12:16:05.248Z,0.70
2023-12-26T12:22:22.796Z,0.90
2023-12-26T12:28:40.196Z,0.80
2023-12-26T12:35:00.430Z,0.97
2023-12-26T12:41:18.021Z,0.93
2023-12-26T12:47:35.014Z,0.57
2023-12-26T12:53:52.477Z,0.97
2023-12-26T13:00:10.214Z,1.17
2023-12-26T13:06:27.736Z,0.97
2023-12-26T13:12:45.167Z,1.20
2023-12-26T13:19:02.214Z,0.90
2023-12-26T13:25:18.904Z,1.20
2023-12-26T13:31:37.193Z,0.90
2023-12-26T13:37:57.371Z,1.10
2023-12-26T13:44:15.557Z,1.10
2023-12-26T13:50:33.267Z,1.20
2023-12-26T13:55:54.536Z,1.13
2023-12-26T14:01:34.668Z,0.90
2023-12-26T14:06:37.341Z,0.85
2023-12-26T14:12:28.236Z,1.10
2023-12-26T14:18:39.777Z,0.90
2023-12-26T14:55:26.882Z,1.60
2023-12-26T15:01:06.986Z,1.63
2023-12-26T15:06:18.086Z,1.42
2023-12-26T15:11:40.264Z,1.40
2023-12-26T15:16:42.926Z,1.50
2023-12-26T15:21:46.064Z,1.37
2023-12-26T15:26:48.979Z,1.70
2023-12-26T15:31:52.849Z,1.70
2023-12-26T15:36:55.554Z,2.17
2023-12-26T15:41:58.199Z,1.30
2023-12-26T15:47:00.920Z,1.37
2023-12-26T15:52:03.644Z,1.83
2023-12-26T15:57:06.351Z,1.90
2023-12-26T16:02:09.017Z,1.23
2023-12-26T16:07:11.668Z,1.67
2023-12-26T16:12:14.331Z,1.80
2023-12-26T16:17:17.092Z,1.33
2023-12-26T16:22:20.151Z,1.30
2023-12-26T16:27:22.867Z,1.60
2023-12-26T16:32:25.510Z,1.90
2023-12-26T16:37:28.165Z,2.37
2023-12-26T16:42:30.862Z,1.80
2023-12-26T16:47:33.944Z,2.07
2023-12-26T16:52:37.004Z,2.27
2023-12-26T16:57:39.691Z,1.90
2023-12-26T17:02:42.292Z,2.17
2023-12-26T17:07:45.249Z,2.57
2023-12-26T17:12:48.445Z,1.90
2023-12-26T17:17:51.258Z,1.90
2023-12-26T17:22:54.220Z,1.83
2023-12-26T17:27:57.314Z,1.80
2023-12-26T17:33:00.993Z,1.93
2023-12-26T17:38:06.190Z,2.33
2023-12-26T17:43:08.925Z,1.80
2023-12-26T17:48:11.686Z,1.83
2023-12-26T17:53:14.437Z,2.43
2023-12-26T17:58:17.176Z,2.37
2023-12-26T18:03:19.998Z,2.17
2023-12-26T18:08:22.629Z,1.90
2023-12-26T18:13:25.139Z,1.90
2023-12-26T18:18:30.550Z,2.07
2023-12-26T18:23:40.804Z,1.90
2023-12-26T18:28:44.548Z,2.20
2023-12-26T18:33:47.310Z,2.00
2023-12-26T18:38:51.438Z,2.10
2023-12-26T18:43:54.191Z,1.97
2023-12-26T18:48:57.010Z,2.00
2023-12-26T18:53:59.908Z,2.33
2023-12-26T18:59:03.229Z,1.73
2023-12-26T19:04:06.147Z,1.90
2023-12-26T19:09:12.633Z,1.97
2023-12-26T19:14:15.457Z,2.40
2023-12-26T19:19:20.073Z,2.13
2023-12-26T19:24:23.008Z,1.80
2023-12-26T19:29:25.708Z,3.00
2023-12-26T19:34:28.308Z,2.00
2023-12-26T19:39:31.059Z,2.50
2023-12-26T19:44:35.127Z,2.70
2023-12-26T19:49:38.868Z,2.23
2023-12-26T19:54:44.660Z,2.20
2023-12-26T19:59:47.233Z,2.00
2023-12-26T20:04:49.871Z,2.37
2023-12-26T20:09:52.513Z,2.33
2023-12-26T20:14:55.221Z,1.90
2023-12-26T20:19:58.122Z,2.53
2023-12-26T20:25:00.891Z,2.70
2023-12-26T20:30:03.779Z,2.30
2023-12-26T20:35:08.187Z,2.17
2023-12-26T20:40:11.402Z,2.37
2023-12-26T20:45:14.065Z,2.47
2023-12-26T20:50:16.904Z,2.37
2023-12-26T20:55:19.399Z,2.50
2023-12-26T21:00:21.956Z,1.90
2023-12-26T21:05:24.468Z,2.67
2023-12-26T21:10:29.096Z,2.13
2023-12-26T21:15:31.666Z,2.73
2023-12-26T21:20:34.248Z,2.27
2023-12-26T21:25:36.778Z,2.20
2023-12-26T21:30:39.405Z,2.33
2023-12-26T21:35:42.087Z,2.07
2023-12-26T21:40:49.095Z,2.57
2023-12-26T21:45:51.816Z,2.93
2023-12-26T21:50:54.376Z,2.37
2023-12-26T21:55:56.860Z,2.47
2023-12-26T22:00:59.376Z,2.33
2023-12-26T22:06:02.135Z,2.40
2023-12-26T22:11:04.994Z,2.47
2023-12-26T22:16:07.638Z,2.60
2023-12-26T22:21:10.384Z,2.47
2023-12-26T22:26:12.886Z,2.60
2023-12-26T22:31:23.256Z,3.40
2023-12-26T22:36:27.212Z,2.47
2023-12-26T22:41:32.746Z,2.30
2023-12-26T22:46:35.326Z,2.70
2023-12-26T22:51:37.928Z,3.03
2023-12-26T22:56:41.833Z,2.93
2023-12-26T23:01:46.739Z,3.20
2023-12-26T23:06:49.466Z,2.20
2023-12-26T23:11:52.981Z,3.10
2023-12-26T23:16:55.535Z,3.07
2023-12-26T23:21:58.083Z,2.90
2023-12-26T23:27:00.632Z,2.93
2023-12-26T23:32:03.829Z,3.50
2023-12-26T23:37:06.589Z,3.10
2023-12-26T23:42:09.147Z,3.07
2023-12-26T23:47:15.141Z,2.97
2023-12-26T23:52:17.952Z,2.70
2023-12-26T23:57:20.518Z,3.10
